Marquez, Texas
Current Conditions -  °F | °C
As of 9:15 PM on Monday 26 Jan 2015 (Local Time) from KLXY Reporting Station
Clear Clear  
Wind Chill: 56°   Ceiling: Unl
Heat Index: 56°   Visibility: 10mi
Dew Point: 39°   Wind: 7mph
Humidity: 54%   Direction: 230°SW
Pressure: 30.11"   Gusts: NA
Location:  31.24°N, 96.25°W
Report Text: KLXY 270315Z AUTO 23006KT 10SM CLR 13/04 A3011 RMK AO2 T01320041
Loading
Personal Weather Stations






























Interactive Weather Map New forecast layout! Learn more

10-Day Weather Forecast

Advertisements
Track Severe Weather on mobile